createdAt,value
2022-10-09T00:00:09.571Z,102279.00
2022-10-09T00:03:10.242Z,102270.69
2022-10-09T00:06:09.336Z,102258.38
2022-10-09T00:09:06.993Z,102271.72
2022-10-09T00:12:04.038Z,102279.00
2022-10-09T00:15:02.637Z,102288.31
2022-10-09T00:17:59.982Z,102285.56
2022-10-09T00:20:56.914Z,102287.47
2022-10-09T00:23:55.088Z,102283.38
2022-10-09T00:26:51.960Z,102280.75
2022-10-09T00:29:50.613Z,102282.41
2022-10-09T00:32:48.068Z,102289.06
2022-10-09T00:35:45.898Z,102284.38
2022-10-09T00:38:43.648Z,102282.16
2022-10-09T00:41:41.248Z,102298.66
2022-10-09T00:45:00.258Z,102303.06
2022-10-09T00:47:59.830Z,102294.28
2022-10-09T00:50:58.411Z,102293.34
2022-10-09T00:53:56.594Z,102287.44
2022-10-09T00:56:53.980Z,102289.53
2022-10-09T00:59:50.998Z,102295.88
2022-10-09T01:02:48.258Z,102301.81
2022-10-09T01:06:30.446Z,102298.84
2022-10-09T01:09:59.678Z,102292.72
2022-10-09T01:13:09.887Z,102291.19
2022-10-09T01:16:20.251Z,102284.50
2022-10-09T01:19:46.269Z,102279.53
2022-10-09T01:23:05.290Z,102290.63
2022-10-09T01:26:22.756Z,102294.59
2022-10-09T01:29:20.399Z,102296.16
2022-10-09T01:32:21.254Z,102291.94
2022-10-09T01:35:19.770Z,102294.31
2022-10-09T01:38:16.692Z,102280.13
2022-10-09T01:41:13.982Z,102272.25
2022-10-09T01:44:25.691Z,102276.13
2022-10-09T01:47:23.057Z,102263.66
2022-10-09T01:50:25.227Z,102280.66
2022-10-09T01:53:22.591Z,102275.53
2022-10-09T01:56:21.679Z,102283.75
2022-10-09T01:59:19.032Z,102282.88
2022-10-09T02:02:16.219Z,102272.69
2022-10-09T02:05:19.293Z,102285.06
2022-10-09T02:08:17.662Z,102282.38
2022-10-09T02:11:15.279Z,102277.84
2022-10-09T02:14:11.787Z,102290.19
2022-10-09T02:17:14.754Z,102276.44
2022-10-09T02:20:15.060Z,102265.59
2022-10-09T02:23:12.552Z,102274.91
2022-10-09T02:26:09.588Z,102268.78
2022-10-09T02:29:07.294Z,102274.72
2022-10-09T02:32:05.100Z,102275.13
2022-10-09T02:35:02.159Z,102255.00
2022-10-09T02:37:59.253Z,102263.66
2022-10-09T02:41:00.337Z,102261.47
2022-10-09T02:43:57.836Z,102258.78
2022-10-09T02:46:54.931Z,102269.06
2022-10-09T02:49:51.830Z,102269.47
2022-10-09T02:52:49.147Z,102262.59
2022-10-09T02:55:46.827Z,102264.47
2022-10-09T02:58:43.768Z,102249.91
2022-10-09T03:01:40.903Z,102241.78
2022-10-09T03:04:37.827Z,102248.88
2022-10-09T03:07:35.062Z,102245.59
2022-10-09T03:10:32.773Z,102254.09
2022-10-09T03:13:30.142Z,102262.53
2022-10-09T03:16:27.091Z,102268.69
2022-10-09T03:19:24.421Z,102265.75
2022-10-09T03:22:22.064Z,102260.28
2022-10-09T03:25:19.203Z,102262.13
2022-10-09T03:28:16.025Z,102270.44
2022-10-09T03:31:22.529Z,102274.78
2022-10-09T03:34:30.091Z,102266.13
2022-10-09T03:37:27.061Z,102266.66
2022-10-09T03:40:23.942Z,102272.06
2022-10-09T03:43:21.018Z,102268.47
2022-10-09T03:46:18.224Z,102273.25
2022-10-09T03:49:15.738Z,102273.94
2022-10-09T03:52:13.077Z,102274.91
2022-10-09T03:55:10.190Z,102269.38
2022-10-09T03:58:06.993Z,102277.88
2022-10-09T04:01:04.094Z,102278.41
2022-10-09T04:04:01.017Z,102287.63
2022-10-09T04:06:57.975Z,102284.97
2022-10-09T04:09:55.610Z,102291.97
2022-10-09T04:12:53.019Z,102294.88
2022-10-09T04:15:51.402Z,102289.97
2022-10-09T04:18:48.319Z,102299.34
2022-10-09T04:21:45.974Z,102298.25
2022-10-09T04:24:43.234Z,102293.38
2022-10-09T04:27:40.224Z,102292.31
2022-10-09T04:30:37.297Z,102290.94
2022-10-09T04:33:34.302Z,102286.56
2022-10-09T04:36:31.378Z,102292.03
2022-10-09T04:39:27.885Z,102286.38
2022-10-09T04:42:25.213Z,102296.19
2022-10-09T04:45:22.076Z,102300.72
2022-10-09T04:48:19.258Z,102287.16
2022-10-09T04:51:16.469Z,102285.16
2022-10-09T04:54:14.152Z,102282.25
2022-10-09T04:57:11.142Z,102286.97
2022-10-09T05:00:08.702Z,102277.00
2022-10-09T05:03:06.379Z,102282.97
2022-10-09T05:06:04.513Z,102280.66
2022-10-09T05:09:02.215Z,102287.25
2022-10-09T05:11:58.783Z,102289.13
2022-10-09T05:14:55.914Z,102281.25
2022-10-09T05:17:53.054Z,102275.78
2022-10-09T05:20:50.395Z,102273.03
2022-10-09T05:23:47.559Z,102264.50
2022-10-09T05:26:45.093Z,102258.44
2022-10-09T05:29:42.077Z,102263.69
2022-10-09T05:32:38.837Z,102272.56
2022-10-09T05:35:36.299Z,102277.59
2022-10-09T05:38:33.657Z,102280.03
2022-10-09T05:41:31.201Z,102275.91
2022-10-09T05:44:28.241Z,102267.94
2022-10-09T05:47:25.330Z,102282.00
2022-10-09T05:50:21.887Z,102277.59
2022-10-09T05:53:19.027Z,102276.59
2022-10-09T05:56:17.141Z,102271.97
2022-10-09T05:59:15.667Z,102276.81
2022-10-09T06:02:13.096Z,102279.41
2022-10-09T06:05:12.756Z,102280.75
2022-10-09T06:08:10.003Z,102276.81
2022-10-09T06:11:20.601Z,102279.34
2022-10-09T06:14:18.116Z,102285.28
2022-10-09T06:17:15.294Z,102281.00
2022-10-09T06:20:12.031Z,102285.97
2022-10-09T06:23:09.192Z,102288.22
2022-10-09T06:26:11.722Z,102281.78
2022-10-09T06:29:09.105Z,102282.88
2022-10-09T06:32:07.253Z,102289.03
2022-10-09T06:35:04.170Z,102290.69
2022-10-09T06:38:01.503Z,102302.00
2022-10-09T06:41:05.459Z,102292.28
2022-10-09T06:44:06.282Z,102304.19
2022-10-09T06:47:02.853Z,102297.03
2022-10-09T06:50:00.342Z,102301.97
2022-10-09T06:52:57.145Z,102303.41
2022-10-09T06:55:54.610Z,102305.25
2022-10-09T06:58:52.066Z,102300.38
2022-10-09T07:01:49.198Z,102308.38
2022-10-09T07:04:47.165Z,102306.34
2022-10-09T07:07:44.095Z,102304.28
2022-10-09T07:10:41.400Z,102307.66
2022-10-09T07:13:38.356Z,102305.47
2022-10-09T07:16:37.671Z,102307.59
2022-10-09T07:19:35.085Z,102309.19
2022-10-09T07:22:32.521Z,102305.84
2022-10-09T07:25:30.315Z,102314.50
2022-10-09T07:28:28.261Z,102320.25
2022-10-09T07:31:25.458Z,102319.75
2022-10-09T07:34:22.377Z,102326.22
2022-10-09T07:37:19.364Z,102318.69
2022-10-09T07:40:16.076Z,102314.91
2022-10-09T07:43:13.526Z,102330.03
2022-10-09T07:46:13.226Z,102338.97
2022-10-09T07:49:09.957Z,102322.03
2022-10-09T07:52:06.953Z,102334.13
2022-10-09T07:55:04.463Z,102328.53
2022-10-09T07:58:01.374Z,102330.97
2022-10-09T08:01:06.785Z,102324.47
2022-10-09T08:04:04.542Z,102332.50
2022-10-09T08:07:02.099Z,102325.38
2022-10-09T08:09:59.516Z,102332.03
2022-10-09T08:12:56.345Z,102325.75
2022-10-09T08:15:53.285Z,102324.03
2022-10-09T08:18:54.356Z,102325.00
2022-10-09T08:21:51.074Z,102335.34
2022-10-09T08:24:48.636Z,102318.28
2022-10-09T08:27:46.314Z,102315.13
2022-10-09T08:30:43.325Z,102322.66
2022-10-09T08:33:40.359Z,102320.25
2022-10-09T08:36:37.260Z,102319.56
2022-10-09T08:39:34.174Z,102326.28
2022-10-09T08:42:32.418Z,102319.84
2022-10-09T08:45:29.130Z,102314.69
2022-10-09T08:48:25.961Z,102319.84
2022-10-09T08:51:28.303Z,102317.34
2022-10-09T08:54:34.914Z,102309.03
2022-10-09T08:57:32.823Z,102314.50
2022-10-09T09:00:58.820Z,102310.19
2022-10-09T09:03:56.280Z,102298.34
2022-10-09T09:07:19.876Z,102318.34
2022-10-09T09:10:48.905Z,102316.25
2022-10-09T09:14:09.094Z,102319.06
2022-10-09T09:17:14.464Z,102307.19
2022-10-09T09:20:26.989Z,102321.50
2022-10-09T09:23:33.629Z,102317.53
2022-10-09T09:26:31.274Z,102305.16
2022-10-09T09:29:28.222Z,102305.84
2022-10-09T09:32:26.521Z,102305.06
2022-10-09T09:35:32.627Z,102307.88
2022-10-09T09:38:30.269Z,102292.19
2022-10-09T09:41:30.568Z,102286.16
2022-10-09T09:44:27.495Z,102286.16
2022-10-09T09:47:28.091Z,102276.41
2022-10-09T09:50:56.475Z,102278.69
2022-10-09T09:54:04.221Z,102267.59
2022-10-09T09:57:13.856Z,102278.03
2022-10-09T10:00:16.549Z,102268.50
2022-10-09T10:03:14.702Z,102269.69
2022-10-09T10:06:22.607Z,102257.66
2022-10-09T10:09:19.415Z,102252.09
2022-10-09T10:12:16.005Z,102244.97
2022-10-09T10:15:29.568Z,102247.34
2022-10-09T10:18:28.387Z,102245.19
2022-10-09T10:21:24.981Z,102240.22
2022-10-09T10:24:27.609Z,102237.38
2022-10-09T10:27:29.818Z,102219.94
2022-10-09T10:30:27.385Z,102218.41
2022-10-09T10:33:29.313Z,102215.69
2022-10-09T10:36:26.346Z,102218.78
2022-10-09T10:39:37.276Z,102223.25
2022-10-09T10:42:43.974Z,102216.13
2022-10-09T10:45:53.961Z,102200.97
2022-10-09T10:48:51.749Z,102199.28
2022-10-09T10:52:18.585Z,102201.19
2022-10-09T10:55:41.260Z,102200.06
2022-10-09T10:58:47.218Z,102211.84
2022-10-09T11:01:44.280Z,102203.28
2022-10-09T11:04:50.658Z,102190.53
2022-10-09T11:08:00.161Z,102196.88
2022-10-09T11:11:06.141Z,102181.09
2022-10-09T11:14:21.462Z,102182.72
2022-10-09T11:17:45.921Z,102175.75
2022-10-09T11:21:01.426Z,102157.72
2022-10-09T11:24:40.450Z,102161.88
2022-10-09T11:28:09.162Z,102145.19
2022-10-09T11:31:15.036Z,102149.78
2022-10-09T11:34:21.363Z,102131.56
2022-10-09T11:37:21.217Z,102127.13
2022-10-09T11:40:23.307Z,102127.97
2022-10-09T11:43:23.332Z,102128.44
2022-10-09T11:46:44.827Z,102122.53
2022-10-09T11:50:03.801Z,102122.81
2022-10-09T11:53:10.420Z,102122.16
2022-10-09T11:56:09.054Z,102117.31
2022-10-09T11:59:06.778Z,102111.88
2022-10-09T12:02:24.906Z,102100.56
2022-10-09T12:05:42.154Z,102103.00
2022-10-09T12:08:43.997Z,102089.88
2022-10-09T12:11:41.186Z,102082.91
2022-10-09T12:14:38.430Z,102085.19
2022-10-09T12:17:35.315Z,102079.19
2022-10-09T12:20:41.123Z,102075.03
2022-10-09T12:23:39.087Z,102074.56
2022-10-09T12:26:36.340Z,102066.56
2022-10-09T12:29:41.171Z,102070.53
2022-10-09T12:32:46.469Z,102056.41
2022-10-09T12:35:45.507Z,102063.25
2022-10-09T12:38:42.718Z,102055.78
2022-10-09T12:41:39.677Z,102050.06
2022-10-09T12:44:39.975Z,102047.59
2022-10-09T12:47:37.717Z,102038.94
2022-10-09T12:50:34.925Z,102040.53
2022-10-09T12:53:32.615Z,102028.06
2022-10-09T12:56:33.334Z,102036.88
2022-10-09T12:59:30.168Z,102030.53
2022-10-09T13:02:27.695Z,102020.34
2022-10-09T13:05:40.667Z,102007.31
2022-10-09T13:08:38.345Z,102008.56
2022-10-09T13:11:42.991Z,102004.75
2022-10-09T13:14:52.525Z,102001.06
2022-10-09T13:17:49.923Z,101996.88
2022-10-09T13:20:47.923Z,102005.13
2022-10-09T13:23:45.960Z,101990.44
2022-10-09T13:26:43.711Z,101979.00
2022-10-09T13:29:44.210Z,101983.25
2022-10-09T13:32:41.574Z,101971.53
2022-10-09T13:35:38.589Z,101969.53
2022-10-09T13:38:35.716Z,101966.09
2022-10-09T13:41:32.476Z,101962.59
2022-10-09T13:44:29.534Z,101961.13
2022-10-09T13:47:26.537Z,101946.56
2022-10-09T13:50:24.416Z,101951.69
2022-10-09T13:53:21.960Z,101947.13
2022-10-09T13:56:19.828Z,101934.16
2022-10-09T13:59:16.562Z,101942.66
2022-10-09T14:02:13.530Z,101936.13
2022-10-09T14:05:10.812Z,101930.63
2022-10-09T14:08:07.723Z,101929.72
2022-10-09T14:11:04.898Z,101925.00
2022-10-09T14:14:02.824Z,101910.19
2022-10-09T14:16:59.660Z,101911.78
2022-10-09T14:19:56.295Z,101907.50
2022-10-09T14:22:53.584Z,101898.91
2022-10-09T14:25:50.518Z,101898.66
2022-10-09T14:28:47.790Z,101897.13
2022-10-09T14:31:44.686Z,101897.66
2022-10-09T14:34:41.427Z,101880.38
2022-10-09T14:37:42.373Z,101886.81
2022-10-09T14:40:43.469Z,101877.44
2022-10-09T14:43:40.875Z,101874.78
2022-10-09T14:46:39.213Z,101874.97
2022-10-09T14:49:36.288Z,101873.00
2022-10-09T14:52:33.681Z,101850.00
2022-10-09T14:55:30.820Z,101847.00
2022-10-09T14:58:29.642Z,101844.16
2022-10-09T15:01:26.961Z,101843.06
2022-10-09T15:04:25.897Z,101839.81
2022-10-09T15:07:28.215Z,101834.34
2022-10-09T15:10:25.773Z,101818.09
2022-10-09T15:13:25.185Z,101833.31
2022-10-09T15:16:22.650Z,101831.03
2022-10-09T15:19:19.549Z,101822.75
2022-10-09T15:22:17.000Z,101819.22
2022-10-09T15:25:16.772Z,101814.16
2022-10-09T15:28:13.627Z,101810.34
2022-10-09T15:31:29.251Z,101799.56
2022-10-09T15:34:26.941Z,101810.38
2022-10-09T15:37:23.581Z,101791.72
2022-10-09T15:40:20.759Z,101792.63
2022-10-09T15:43:18.913Z,101788.56
2022-10-09T15:46:16.749Z,101794.69
2022-10-09T15:49:13.476Z,101794.22
2022-10-09T15:52:10.403Z,101794.69
2022-10-09T15:55:08.227Z,101777.25
2022-10-09T15:58:05.437Z,101779.66
2022-10-09T16:01:04.801Z,101780.41
2022-10-09T16:04:01.336Z,101777.59
2022-10-09T16:06:58.400Z,101778.38
2022-10-09T16:09:56.911Z,101778.44
2022-10-09T16:12:53.597Z,101771.81
2022-10-09T16:15:50.509Z,101760.63
2022-10-09T16:18:48.074Z,101762.03
2022-10-09T16:21:45.701Z,101763.59
2022-10-09T16:24:43.769Z,101757.34
2022-10-09T16:27:40.502Z,101754.47
2022-10-09T16:30:42.131Z,101757.41
2022-10-09T16:33:39.577Z,101759.47
2022-10-09T16:36:36.423Z,101759.84
2022-10-09T16:39:33.571Z,101750.38
2022-10-09T16:42:31.171Z,101752.66
2022-10-09T16:45:29.172Z,101745.88
2022-10-09T16:48:27.143Z,101749.72
2022-10-09T16:51:27.146Z,101738.25
2022-10-09T16:54:24.781Z,101738.84
2022-10-09T16:57:21.758Z,101745.22
2022-10-09T17:00:19.421Z,101749.34
2022-10-09T17:03:16.988Z,101748.44
2022-10-09T17:06:15.937Z,101754.59
2022-10-09T17:09:13.953Z,101741.69
2022-10-09T17:12:13.103Z,101743.56
2022-10-09T17:15:10.534Z,101747.19
2022-10-09T17:18:07.967Z,101731.28
2022-10-09T17:21:06.159Z,101743.28
2022-10-09T17:24:04.267Z,101740.19
2022-10-09T17:27:01.499Z,101741.28
2022-10-09T17:29:58.540Z,101744.47
2022-10-09T17:32:55.289Z,101737.97
2022-10-09T17:35:52.800Z,101739.41
2022-10-09T17:38:49.904Z,101740.88
2022-10-09T17:41:47.549Z,101728.53
2022-10-09T17:44:44.697Z,101730.91
2022-10-09T17:47:41.796Z,101737.22
2022-10-09T17:50:38.776Z,101725.09
2022-10-09T17:53:35.759Z,101728.75
2022-10-09T17:56:32.867Z,101728.75
2022-10-09T17:59:29.426Z,101726.16
2022-10-09T18:02:27.075Z,101719.53
2022-10-09T18:05:24.622Z,101711.19
2022-10-09T18:08:22.424Z,101709.53
2022-10-09T18:11:20.341Z,101708.47
2022-10-09T18:14:17.695Z,101717.09
2022-10-09T18:17:15.024Z,101713.88
2022-10-09T18:20:11.684Z,101715.25
2022-10-09T18:23:09.641Z,101715.63
2022-10-09T18:26:08.131Z,101706.16
2022-10-09T18:29:06.100Z,101715.59
2022-10-09T18:32:03.896Z,101718.16
2022-10-09T18:35:01.047Z,101706.09
2022-10-09T18:37:58.394Z,101697.50
2022-10-09T18:40:55.683Z,101686.28
2022-10-09T18:43:53.264Z,101675.78
2022-10-09T18:46:55.847Z,101693.91
2022-10-09T18:49:53.174Z,101693.25
2022-10-09T18:52:50.979Z,101682.25
2022-10-09T18:55:49.042Z,101676.75
2022-10-09T18:58:45.719Z,101680.19
2022-10-09T19:01:42.552Z,101665.09
2022-10-09T19:04:39.796Z,101675.25
2022-10-09T19:07:36.849Z,101672.28
2022-10-09T19:10:33.713Z,101672.28
2022-10-09T19:13:30.857Z,101675.34
2022-10-09T19:16:28.787Z,101652.53
2022-10-09T19:19:25.548Z,101648.53
2022-10-09T19:22:24.083Z,101644.16
2022-10-09T19:25:22.030Z,101655.09
2022-10-09T19:28:19.354Z,101652.28
2022-10-09T19:31:17.052Z,101658.66
2022-10-09T19:34:13.860Z,101661.06
2022-10-09T19:37:10.789Z,101656.44
2022-10-09T19:40:08.496Z,101663.19
2022-10-09T19:43:05.726Z,101661.03
2022-10-09T19:46:04.561Z,101666.94
2022-10-09T19:49:01.841Z,101655.47
2022-10-09T19:51:58.696Z,101646.97
2022-10-09T19:54:55.628Z,101647.19
2022-10-09T19:57:52.803Z,101643.78
2022-10-09T20:00:49.591Z,101634.63
2022-10-09T20:03:47.323Z,101644.09
2022-10-09T20:06:45.077Z,101632.75
2022-10-09T20:09:42.004Z,101636.91
2022-10-09T20:12:39.077Z,101643.91
2022-10-09T20:15:35.875Z,101638.47
2022-10-09T20:18:33.271Z,101640.31
2022-10-09T20:21:31.784Z,101631.94
2022-10-09T20:24:28.599Z,101626.94
2022-10-09T20:27:25.658Z,101618.31
2022-10-09T20:30:22.803Z,101628.72
2022-10-09T20:33:19.664Z,101614.50
2022-10-09T20:36:20.649Z,101612.13
2022-10-09T20:39:19.542Z,101607.75
2022-10-09T20:42:17.076Z,101610.63
2022-10-09T20:45:14.170Z,101585.38
2022-10-09T20:48:11.154Z,101599.31
2022-10-09T20:51:07.731Z,101608.84
2022-10-09T20:54:05.319Z,101609.34
2022-10-09T20:57:02.927Z,101604.44
2022-10-09T20:59:59.807Z,101609.81
2022-10-09T21:02:56.988Z,101600.84
2022-10-09T21:05:53.641Z,101601.41
2022-10-09T21:08:51.085Z,101588.13
2022-10-09T21:11:47.604Z,101580.50
2022-10-09T21:14:45.005Z,101589.31
2022-10-09T21:17:42.140Z,101580.75
2022-10-09T21:20:39.895Z,101574.81
2022-10-09T21:23:36.727Z,101570.06
2022-10-09T21:26:35.791Z,101562.66
2022-10-09T21:29:32.798Z,101573.44
2022-10-09T21:32:29.591Z,101560.81
2022-10-09T21:35:26.757Z,101566.47
2022-10-09T21:38:24.122Z,101565.03
2022-10-09T21:41:20.634Z,101557.56
2022-10-09T21:44:18.187Z,101564.47
2022-10-09T21:47:20.680Z,101564.41
2022-10-09T21:50:17.938Z,101560.81
2022-10-09T21:53:14.833Z,101552.81
2022-10-09T21:56:12.043Z,101555.38
2022-10-09T21:59:08.905Z,101554.19
2022-10-09T22:02:06.024Z,101555.66
2022-10-09T22:05:02.618Z,101554.03
2022-10-09T22:08:00.490Z,101543.44
2022-10-09T22:10:57.835Z,101531.03
2022-10-09T22:13:55.574Z,101525.78
2022-10-09T22:16:52.777Z,101538.03
2022-10-09T22:19:50.680Z,101522.69
2022-10-09T22:22:48.589Z,101524.88
2022-10-09T22:25:56.422Z,101514.06
2022-10-09T22:28:53.967Z,101515.19
2022-10-09T22:31:51.012Z,101510.19
2022-10-09T22:34:50.701Z,101507.41
2022-10-09T22:37:48.162Z,101504.81
2022-10-09T22:40:47.219Z,101494.25
2022-10-09T22:43:45.814Z,101501.75
2022-10-09T22:46:43.759Z,101495.59
2022-10-09T22:49:40.781Z,101494.66
2022-10-09T22:52:37.874Z,101484.63
2022-10-09T22:55:34.674Z,101474.75
2022-10-09T22:58:32.306Z,101472.81
2022-10-09T23:01:35.442Z,101478.81
2022-10-09T23:04:32.955Z,101465.72
2022-10-09T23:07:29.879Z,101461.75
2022-10-09T23:10:26.843Z,101462.78
2022-10-09T23:13:23.788Z,101462.78
2022-10-09T23:16:20.794Z,101460.44
2022-10-09T23:19:18.171Z,101464.25
2022-10-09T23:22:15.169Z,101448.84
2022-10-09T23:25:12.011Z,101446.38
2022-10-09T23:28:09.015Z,101451.16
2022-10-09T23:31:11.375Z,101434.09
2022-10-09T23:34:08.619Z,101440.41
2022-10-09T23:37:06.129Z,101436.75
2022-10-09T23:40:03.005Z,101430.25
2022-10-09T23:42:59.961Z,101434.06
2022-10-09T23:45:58.096Z,101423.13
2022-10-09T23:48:54.938Z,101426.44
2022-10-09T23:51:52.107Z,101426.41
2022-10-09T23:54:49.157Z,101426.03
2022-10-09T23:57:45.940Z,101428.72
